飛行機

飛行機

今日は凄かった

自宅の屋上から羽田の離発着がよく見えるんだが、今朝は雨が降ってる時間帯に絞ったエンジン音がやたらと聞こえるので何だろうと思ったわけで、METARをチェック。 12/3 8:20 RJTT 022320Z 26007KT 220V30...
飛行機

久しぶりにMETARなんぞ

伊丹。 METAR RJOO 101000Z 33012KT 9999 SHRA FEW010 BKN015 BKN020 10/08 Q1013 RMK 1CU010 5CU015 7CU020 A2992= SHRAかぁ。...
飛行機

久しぶりにMETARでも貼るか

羽田から飛ぶので、たまには。 RJTT 090130Z 13005KT 9999 -SHRA FEW015 SCT020 BKN030 22/16 Q1004 RMK 1CU015 3CU020 7SC030 A2967 SH...
飛行機

さて今日の伊丹→羽田は

伊丹は少し風が出てきた。通常通り32L。 METAR RJOO 150800Z 28011KT 230V340 9999 FEW030 08/M06 Q1016 羽田。つまらん、普通に34L。 METAR RJTT 15...
飛行機

さて今日の羽田→伊丹は

羽田は少し風があるけれど、34Rでしょう。 METAR RJTT 150000Z 35012KT 9999 FEW030 05/M07 Q1014 伊丹は風向定まらず。弱すぎ。32L。 METAR RJOO 150000...
飛行機

さて今日の神戸→羽田は

いつものように書きたいところが、神戸(RJBE)のMETARをフライト時に取れなくて、アーカイブを探しても入手不可(:_;)さすが、市営空港だ...。 神戸は初めてだったんだけども、三ノ宮のバス乗り場にギリギリ間に合わず、伊丹からの...
飛行機

さて今日の羽田→伊丹は

羽田は少し風があるけれど、このぐらいなら34Rで普通通り。 METAR RJTT 080030Z 34012KT 9999 FEW030 06/M09 Q1018 伊丹も特に問題なし。32Lだなぁ。 METAR RJOO...
飛行機

さて今日の伊丹→羽田は

伊丹は9ノットだけど支障ないでしょう。32L。 METAR RJOO 051000Z 32009KT 9999 FEW025 BKN/// 05/M01 Q1019 羽田も特に問題なし、34L。つまらん(^_^; MET...
飛行機

さて今日の羽田→伊丹は

今年最初のフライト。羽田。34Rだね、こりゃ。 METAR RJTT 040900Z 07004KT 9999 FEW030 BKN070 08/M01 Q1014 伊丹は32Lだな。 METAR RJOO 040900...
飛行機

さて今日の伊丹→羽田は

つまらないなぁ、伊丹は32L。 METAR RJOO 270500Z 26004KT 170V320 CAVOK 15/03 Q1025 羽田も普通過ぎ。34L。 METAR RJTT 270500Z 07004KT C...
タイトルとURLをコピーしました